createdAt,value
2023-05-15T00:03:31.374Z,14.85
2023-05-15T00:08:37.360Z,14.84
2023-05-15T00:13:42.775Z,14.82
2023-05-15T00:18:48.341Z,14.79
2023-05-15T00:23:54.126Z,14.77
2023-05-15T00:28:59.633Z,14.77
2023-05-15T00:34:05.113Z,14.75
2023-05-15T00:39:10.862Z,14.73
2023-05-15T00:44:17.338Z,14.72
2023-05-15T00:49:23.669Z,14.69
2023-05-15T00:54:29.471Z,14.66
2023-05-15T00:59:36.346Z,14.62
2023-05-15T01:04:41.716Z,14.59
2023-05-15T01:09:49.510Z,14.57
2023-05-15T01:14:56.558Z,14.56
2023-05-15T01:20:06.486Z,14.55
2023-05-15T01:25:37.928Z,14.54
2023-05-15T01:30:45.656Z,14.51
2023-05-15T01:35:59.308Z,14.48
2023-05-15T01:41:11.640Z,14.44
2023-05-15T01:46:22.328Z,14.41
2023-05-15T01:51:31.370Z,14.38
2023-05-15T01:56:37.975Z,14.36
2023-05-15T02:01:44.810Z,14.33
2023-05-15T02:06:51.094Z,14.29
2023-05-15T02:11:57.656Z,14.24
2023-05-15T02:17:03.281Z,14.20
2023-05-15T02:22:09.105Z,14.19
2023-05-15T02:27:21.073Z,14.19
2023-05-15T02:32:38.036Z,14.19
2023-05-15T02:37:48.101Z,14.18
2023-05-15T02:42:55.232Z,14.16
2023-05-15T02:48:01.437Z,14.11
2023-05-15T02:53:10.014Z,14.12
2023-05-15T02:58:15.646Z,14.11
2023-05-15T03:03:22.760Z,14.10
2023-05-15T03:08:28.765Z,14.09
2023-05-15T03:13:34.629Z,14.08
2023-05-15T03:18:41.454Z,14.08
2023-05-15T03:23:47.197Z,14.10
2023-05-15T03:28:52.551Z,14.13
2023-05-15T03:33:58.050Z,14.17
2023-05-15T03:39:03.616Z,14.21
2023-05-15T03:44:09.017Z,14.23
2023-05-15T03:49:14.547Z,14.25
2023-05-15T03:54:20.089Z,14.26
2023-05-15T03:59:25.860Z,14.26
2023-05-15T04:04:31.296Z,14.28
2023-05-15T04:09:36.882Z,14.30
2023-05-15T04:14:42.392Z,14.32
2023-05-15T04:19:48.083Z,14.34
2023-05-15T04:24:53.451Z,14.35
2023-05-15T04:29:58.908Z,14.36
2023-05-15T04:35:05.786Z,14.36
2023-05-15T04:40:14.913Z,14.34
2023-05-15T04:45:21.593Z,14.34
2023-05-15T04:50:27.328Z,14.37
2023-05-15T04:55:33.669Z,14.40
2023-05-15T05:00:39.696Z,14.42
2023-05-15T05:05:46.145Z,14.46
2023-05-15T05:10:57.670Z,14.54
2023-05-15T05:16:03.891Z,14.62
2023-05-15T05:21:09.749Z,14.70
2023-05-15T05:26:15.290Z,14.81
2023-05-15T05:31:22.244Z,14.89
2023-05-15T05:36:27.624Z,14.96
2023-05-15T05:41:33.186Z,15.04
2023-05-15T05:46:38.680Z,15.19
2023-05-15T05:51:45.804Z,15.39
2023-05-15T05:56:51.279Z,15.61
2023-05-15T06:01:57.007Z,15.88
2023-05-15T06:07:03.037Z,16.13
2023-05-15T06:12:09.348Z,16.26
2023-05-15T06:17:15.439Z,16.36
2023-05-15T06:22:21.235Z,16.38
2023-05-15T06:27:27.694Z,16.26
2023-05-15T06:32:34.571Z,16.13
2023-05-15T06:37:40.806Z,16.04
2023-05-15T06:42:47.271Z,15.94
2023-05-15T06:47:52.704Z,15.72
2023-05-15T06:52:58.144Z,15.41
2023-05-15T06:58:04.348Z,15.04
2023-05-15T07:03:10.030Z,14.74
2023-05-15T07:08:15.566Z,14.52
2023-05-15T07:13:22.033Z,14.28
2023-05-15T07:18:27.506Z,14.06
2023-05-15T07:23:32.958Z,13.75
2023-05-15T07:28:38.503Z,13.51
2023-05-15T07:33:44.065Z,13.42
2023-05-15T07:38:49.458Z,13.52
2023-05-15T07:43:56.388Z,13.72
2023-05-15T07:49:02.020Z,13.88
2023-05-15T07:54:08.094Z,13.91
2023-05-15T07:59:13.682Z,13.89
2023-05-15T08:04:19.589Z,13.92
2023-05-15T08:09:25.080Z,13.95
2023-05-15T08:14:30.699Z,14.13
2023-05-15T08:19:36.264Z,14.40
2023-05-15T08:24:42.516Z,14.40
2023-05-15T08:29:48.110Z,14.30
2023-05-15T08:34:53.606Z,14.33
2023-05-15T08:39:59.312Z,14.41
2023-05-15T08:45:06.797Z,14.56
2023-05-15T08:50:15.177Z,14.58
2023-05-15T08:55:21.892Z,14.47
2023-05-15T09:00:27.833Z,14.36
2023-05-15T09:05:34.443Z,14.24
2023-05-15T09:10:40.480Z,13.99
2023-05-15T09:15:47.995Z,13.71
2023-05-15T09:20:55.478Z,13.52
2023-05-15T09:26:01.977Z,13.34
2023-05-15T09:31:09.065Z,13.20
2023-05-15T09:36:23.479Z,13.14
2023-05-15T09:41:29.374Z,13.14
2023-05-15T09:46:37.521Z,13.13
2023-05-15T09:51:44.827Z,13.07
2023-05-15T09:56:50.589Z,13.10
2023-05-15T10:05:41.988Z,13.25
2023-05-15T10:10:48.892Z,13.60
2023-05-15T10:15:56.043Z,14.17
2023-05-15T10:21:04.471Z,14.47
2023-05-15T10:26:21.567Z,14.42
2023-05-15T10:31:29.234Z,14.19
2023-05-15T10:36:36.102Z,14.11
2023-05-15T10:41:42.827Z,14.07
2023-05-15T10:46:49.395Z,14.08
2023-05-15T10:51:54.984Z,14.03
2023-05-15T10:57:00.462Z,13.82
2023-05-15T11:02:25.014Z,13.71
2023-05-15T11:07:31.567Z,13.70
2023-05-15T11:13:02.424Z,13.67
2023-05-15T11:18:08.883Z,13.56
2023-05-15T11:23:14.485Z,13.49
2023-05-15T11:28:25.157Z,13.45
2023-05-15T11:33:32.043Z,13.32
2023-05-15T11:38:41.176Z,13.30
2023-05-15T11:43:48.682Z,13.20
2023-05-15T11:48:54.337Z,13.03
2023-05-15T11:54:00.653Z,12.91
2023-05-15T11:59:06.332Z,12.89
2023-05-15T12:04:15.763Z,12.90
2023-05-15T12:09:27.403Z,12.87
2023-05-15T12:14:34.074Z,12.83
2023-05-15T12:19:41.275Z,12.82
2023-05-15T12:24:47.651Z,12.84
2023-05-15T12:29:53.918Z,12.85
2023-05-15T12:34:59.535Z,12.87
2023-05-15T12:40:10.369Z,13.03
2023-05-15T12:45:15.643Z,13.31
2023-05-15T12:50:22.991Z,13.37
2023-05-15T12:55:32.378Z,13.44
2023-05-15T13:00:40.967Z,13.38
2023-05-15T13:05:46.816Z,13.32
2023-05-15T13:10:58.682Z,13.33
2023-05-15T13:16:04.377Z,13.33
2023-05-15T13:21:09.882Z,13.27
2023-05-15T13:26:15.551Z,13.24
2023-05-15T13:31:21.859Z,13.27
2023-05-15T13:36:27.374Z,13.36
2023-05-15T13:41:32.935Z,13.41
2023-05-15T13:46:38.598Z,13.37
2023-05-15T13:51:44.092Z,13.31
2023-05-15T13:56:49.742Z,13.36
2023-05-15T14:01:55.364Z,13.58
2023-05-15T14:07:00.904Z,13.67
2023-05-15T14:12:06.780Z,13.72
2023-05-15T14:17:13.175Z,13.74
2023-05-15T14:22:18.829Z,13.77
2023-05-15T14:27:24.527Z,13.76
2023-05-15T14:32:29.992Z,13.71
2023-05-15T14:37:36.105Z,13.79
2023-05-15T14:42:41.609Z,13.90
2023-05-15T14:47:47.047Z,13.95
2023-05-15T14:52:52.615Z,14.02
2023-05-15T14:57:59.528Z,14.10
2023-05-15T15:03:05.954Z,14.17
2023-05-15T15:08:12.466Z,14.17
2023-05-15T15:13:18.290Z,14.19
2023-05-15T15:18:24.501Z,14.23
2023-05-15T15:23:30.012Z,14.27
2023-05-15T15:28:35.649Z,14.31
2023-05-15T15:33:41.640Z,14.49
2023-05-15T15:38:47.915Z,14.61
2023-05-15T15:43:53.810Z,14.69
2023-05-15T15:49:00.287Z,14.95
2023-05-15T15:54:06.123Z,15.22
2023-05-15T15:59:13.512Z,15.42
2023-05-15T16:04:19.153Z,15.61
2023-05-15T16:09:25.117Z,15.78
2023-05-15T16:14:31.703Z,15.76
2023-05-15T16:19:37.237Z,15.64
2023-05-15T16:24:43.557Z,15.42
2023-05-15T16:29:49.163Z,15.28
2023-05-15T16:34:55.321Z,15.17
2023-05-15T16:40:02.343Z,15.15
2023-05-15T16:45:10.033Z,15.11
2023-05-15T16:50:19.177Z,15.10
2023-05-15T16:55:26.621Z,15.12
2023-05-15T17:00:32.226Z,15.06
2023-05-15T17:05:38.366Z,14.95
2023-05-15T17:10:44.022Z,14.77
2023-05-15T17:15:49.883Z,14.67
2023-05-15T17:20:55.743Z,14.62
2023-05-15T17:26:01.456Z,14.56
2023-05-15T17:31:11.202Z,14.51
2023-05-15T17:36:16.936Z,14.49
2023-05-15T17:41:22.582Z,14.44
2023-05-15T17:46:28.282Z,14.36
2023-05-15T17:51:34.172Z,14.26
2023-05-15T17:56:40.132Z,14.16
2023-05-15T18:01:46.009Z,14.09
2023-05-15T18:06:52.325Z,14.04
2023-05-15T18:11:58.217Z,13.98
2023-05-15T18:17:03.857Z,13.91
2023-05-15T18:22:09.422Z,13.87
2023-05-15T18:27:14.864Z,13.85
2023-05-15T18:32:21.172Z,13.87
2023-05-15T18:37:27.171Z,13.90
2023-05-15T18:42:33.864Z,13.92
2023-05-15T18:47:40.022Z,13.93
2023-05-15T18:52:45.921Z,13.94
2023-05-15T18:57:51.702Z,13.89
2023-05-15T19:02:57.368Z,13.79
2023-05-15T19:08:04.322Z,13.62
2023-05-15T19:13:10.496Z,13.52
2023-05-15T19:18:15.986Z,13.43
2023-05-15T19:23:22.052Z,13.30
2023-05-15T19:28:28.146Z,13.19
2023-05-15T19:33:33.672Z,13.10
2023-05-15T19:38:39.330Z,13.04
2023-05-15T19:43:47.184Z,13.00
2023-05-15T19:48:53.230Z,12.95
2023-05-15T19:54:01.852Z,12.89
2023-05-15T19:59:07.420Z,12.81
2023-05-15T20:04:13.801Z,12.76
2023-05-15T20:09:19.505Z,12.72
2023-05-15T20:14:25.261Z,12.74
2023-05-15T20:19:31.573Z,12.78
2023-05-15T20:24:39.918Z,12.82
2023-05-15T20:29:45.456Z,12.81
2023-05-15T20:34:52.114Z,12.78
2023-05-15T20:39:58.013Z,12.75
2023-05-15T20:45:05.380Z,12.71
2023-05-15T20:50:12.081Z,12.69
2023-05-15T20:55:20.511Z,12.68
2023-05-15T21:00:26.353Z,12.69
2023-05-15T21:05:32.599Z,12.70
2023-05-15T21:10:38.239Z,12.69
2023-05-15T21:15:44.616Z,12.65
2023-05-15T21:20:51.079Z,12.60
2023-05-15T21:25:58.172Z,12.59
2023-05-15T21:31:08.511Z,12.62
2023-05-15T21:36:14.296Z,12.67
2023-05-15T21:41:20.549Z,12.70
2023-05-15T21:46:26.440Z,12.74
2023-05-15T21:51:31.887Z,12.74
2023-05-15T21:56:37.592Z,12.69
2023-05-15T22:01:43.253Z,12.63
2023-05-15T22:06:49.877Z,12.60
2023-05-15T22:11:55.812Z,12.56
2023-05-15T22:17:01.936Z,12.53
2023-05-15T22:22:08.284Z,12.45
2023-05-15T22:27:16.572Z,12.33
2023-05-15T22:32:22.797Z,12.26
2023-05-15T22:37:28.312Z,12.19
2023-05-15T22:42:33.939Z,12.14
2023-05-15T22:47:40.417Z,12.05
2023-05-15T22:52:46.189Z,12.03
2023-05-15T22:57:51.538Z,12.07
2023-05-15T23:02:57.652Z,12.11
2023-05-15T23:08:03.550Z,12.12
2023-05-15T23:13:09.296Z,12.09
2023-05-15T23:18:14.847Z,11.99
2023-05-15T23:23:20.525Z,11.94
2023-05-15T23:28:26.035Z,11.87
2023-05-15T23:33:31.521Z,11.81
2023-05-15T23:38:37.077Z,11.69
2023-05-15T23:43:42.633Z,11.56
2023-05-15T23:48:48.142Z,11.47
2023-05-15T23:53:53.628Z,11.40
2023-05-15T23:58:59.167Z,11.34
